sensor_id;sensor_type;location;lat;lon;timestamp;P1;durP1;ratioP1;P2;durP2;ratioP2
36815;SDS011;71982;52.294;6.760;2023-08-17T00:00:03;7.13;;;2.40;;
36815;SDS011;71982;52.294;6.760;2023-08-17T00:02:33;8.13;;;2.47;;
36815;SDS011;71982;52.294;6.760;2023-08-17T00:05:00;9.55;;;2.42;;
36815;SDS011;71982;52.294;6.760;2023-08-17T00:07:29;7.57;;;2.20;;
36815;SDS011;71982;52.294;6.760;2023-08-17T00:09:56;7.07;;;2.38;;
36815;SDS011;71982;52.294;6.760;2023-08-17T00:12:23;8.25;;;2.50;;
36815;SDS011;71982;52.294;6.760;2023-08-17T00:14:55;5.97;;;2.05;;
36815;SDS011;71982;52.294;6.760;2023-08-17T00:17:25;5.55;;;2.28;;
36815;SDS011;71982;52.294;6.760;2023-08-17T00:19:52;6.43;;;2.83;;
36815;SDS011;71982;52.294;6.760;2023-08-17T00:22:22;6.90;;;2.13;;
36815;SDS011;71982;52.294;6.760;2023-08-17T00:24:55;8.93;;;2.20;;
36815;SDS011;71982;52.294;6.760;2023-08-17T00:27:31;5.60;;;2.00;;
36815;SDS011;71982;52.294;6.760;2023-08-17T00:29:58;7.80;;;2.25;;
36815;SDS011;71982;52.294;6.760;2023-08-17T00:32:27;5.80;;;2.22;;
36815;SDS011;71982;52.294;6.760;2023-08-17T00:34:54;7.78;;;2.25;;
36815;SDS011;71982;52.294;6.760;2023-08-17T00:37:21;8.18;;;2.20;;
36815;SDS011;71982;52.294;6.760;2023-08-17T00:39:48;7.43;;;2.00;;
36815;SDS011;71982;52.294;6.760;2023-08-17T00:42:19;10.60;;;2.65;;
36815;SDS011;71982;52.294;6.760;2023-08-17T00:44:51;9.00;;;2.25;;
36815;SDS011;71982;52.294;6.760;2023-08-17T00:47:22;5.18;;;1.90;;
36815;SDS011;71982;52.294;6.760;2023-08-17T00:49:50;5.95;;;2.25;;
36815;SDS011;71982;52.294;6.760;2023-08-17T00:52:17;5.15;;;2.25;;
36815;SDS011;71982;52.294;6.760;2023-08-17T00:54:44;5.68;;;1.95;;
36815;SDS011;71982;52.294;6.760;2023-08-17T00:57:11;8.23;;;2.42;;
36815;SDS011;71982;52.294;6.760;2023-08-17T00:59:40;5.50;;;2.20;;
36815;SDS011;71982;52.294;6.760;2023-08-17T01:02:06;4.57;;;2.20;;
36815;SDS011;71982;52.294;6.760;2023-08-17T01:04:35;6.03;;;2.30;;
36815;SDS011;71982;52.294;6.760;2023-08-17T01:07:02;9.23;;;2.25;;
36815;SDS011;71982;52.294;6.760;2023-08-17T01:09:28;6.53;;;2.53;;
36815;SDS011;71982;52.294;6.760;2023-08-17T01:11:57;10.07;;;2.28;;
36815;SDS011;71982;52.294;6.760;2023-08-17T01:14:33;4.90;;;2.10;;
36815;SDS011;71982;52.294;6.760;2023-08-17T01:17:10;6.75;;;2.40;;
36815;SDS011;71982;52.294;6.760;2023-08-17T01:19:41;9.23;;;2.40;;
36815;SDS011;71982;52.294;6.760;2023-08-17T01:22:10;6.18;;;2.10;;
36815;SDS011;71982;52.294;6.760;2023-08-17T01:24:42;10.40;;;2.65;;
36815;SDS011;71982;52.294;6.760;2023-08-17T01:27:08;7.97;;;1.95;;
36815;SDS011;71982;52.294;6.760;2023-08-17T01:29:35;6.72;;;2.40;;
36815;SDS011;71982;52.294;6.760;2023-08-17T01:32:03;7.13;;;2.13;;
36815;SDS011;71982;52.294;6.760;2023-08-17T01:34:44;7.30;;;2.30;;
36815;SDS011;71982;52.294;6.760;2023-08-17T01:37:14;6.72;;;2.22;;
36815;SDS011;71982;52.294;6.760;2023-08-17T01:39:45;7.57;;;2.28;;
36815;SDS011;71982;52.294;6.760;2023-08-17T01:42:18;8.68;;;2.03;;
36815;SDS011;71982;52.294;6.760;2023-08-17T01:44:45;7.07;;;2.42;;
36815;SDS011;71982;52.294;6.760;2023-08-17T01:47:12;8.52;;;2.50;;
36815;SDS011;71982;52.294;6.760;2023-08-17T01:49:39;6.25;;;2.38;;
36815;SDS011;71982;52.294;6.760;2023-08-17T01:52:06;6.65;;;2.15;;
36815;SDS011;71982;52.294;6.760;2023-08-17T01:54:33;8.07;;;2.03;;
36815;SDS011;71982;52.294;6.760;2023-08-17T01:57:01;9.80;;;2.10;;
36815;SDS011;71982;52.294;6.760;2023-08-17T01:59:28;7.85;;;3.13;;
36815;SDS011;71982;52.294;6.760;2023-08-17T02:01:55;7.10;;;2.10;;
36815;SDS011;71982;52.294;6.760;2023-08-17T02:04:22;20.45;;;3.10;;
36815;SDS011;71982;52.294;6.760;2023-08-17T02:06:48;5.03;;;2.38;;
36815;SDS011;71982;52.294;6.760;2023-08-17T02:09:15;9.52;;;2.58;;
36815;SDS011;71982;52.294;6.760;2023-08-17T02:11:42;5.50;;;2.00;;
36815;SDS011;71982;52.294;6.760;2023-08-17T02:14:10;10.30;;;3.00;;
36815;SDS011;71982;52.294;6.760;2023-08-17T02:16:37;7.40;;;2.35;;
36815;SDS011;71982;52.294;6.760;2023-08-17T02:19:04;6.00;;;2.00;;
36815;SDS011;71982;52.294;6.760;2023-08-17T02:21:31;7.47;;;2.17;;
36815;SDS011;71982;52.294;6.760;2023-08-17T02:23:57;9.45;;;2.63;;
36815;SDS011;71982;52.294;6.760;2023-08-17T02:26:24;6.53;;;1.90;;
36815;SDS011;71982;52.294;6.760;2023-08-17T02:28:51;7.85;;;2.20;;
36815;SDS011;71982;52.294;6.760;2023-08-17T02:31:19;5.47;;;1.98;;
36815;SDS011;71982;52.294;6.760;2023-08-17T02:33:45;7.18;;;2.03;;
36815;SDS011;71982;52.294;6.760;2023-08-17T02:36:12;5.30;;;2.00;;
36815;SDS011;71982;52.294;6.760;2023-08-17T02:38:39;6.57;;;2.50;;
36815;SDS011;71982;52.294;6.760;2023-08-17T02:41:06;5.05;;;1.98;;
36815;SDS011;71982;52.294;6.760;2023-08-17T02:43:32;7.55;;;2.72;;
36815;SDS011;71982;52.294;6.760;2023-08-17T02:45:59;6.25;;;2.28;;
36815;SDS011;71982;52.294;6.760;2023-08-17T02:48:27;4.07;;;2.03;;
36815;SDS011;71982;52.294;6.760;2023-08-17T02:50:54;11.35;;;2.63;;
36815;SDS011;71982;52.294;6.760;2023-08-17T02:53:21;9.45;;;2.20;;
36815;SDS011;71982;52.294;6.760;2023-08-17T02:55:47;6.03;;;2.10;;
36815;SDS011;71982;52.294;6.760;2023-08-17T02:58:14;7.93;;;2.47;;
36815;SDS011;71982;52.294;6.760;2023-08-17T03:00:41;9.63;;;2.28;;
36815;SDS011;71982;52.294;6.760;2023-08-17T03:03:07;10.70;;;2.72;;
36815;SDS011;71982;52.294;6.760;2023-08-17T03:05:35;6.88;;;2.70;;
36815;SDS011;71982;52.294;6.760;2023-08-17T03:08:02;5.25;;;2.38;;
36815;SDS011;71982;52.294;6.760;2023-08-17T03:10:30;9.88;;;2.47;;
36815;SDS011;71982;52.294;6.760;2023-08-17T03:12:57;6.10;;;2.13;;
36815;SDS011;71982;52.294;6.760;2023-08-17T03:15:26;10.10;;;2.20;;
36815;SDS011;71982;52.294;6.760;2023-08-17T03:17:53;7.10;;;2.88;;
36815;SDS011;71982;52.294;6.760;2023-08-17T03:20:20;8.15;;;2.20;;
36815;SDS011;71982;52.294;6.760;2023-08-17T03:22:48;5.47;;;2.20;;
36815;SDS011;71982;52.294;6.760;2023-08-17T03:25:14;6.38;;;2.15;;
36815;SDS011;71982;52.294;6.760;2023-08-17T03:27:41;5.85;;;1.88;;
36815;SDS011;71982;52.294;6.760;2023-08-17T03:30:08;6.63;;;1.85;;
36815;SDS011;71982;52.294;6.760;2023-08-17T03:32:35;6.07;;;2.40;;
36815;SDS011;71982;52.294;6.760;2023-08-17T03:35:02;7.97;;;2.30;;
36815;SDS011;71982;52.294;6.760;2023-08-17T03:37:29;3.97;;;2.13;;
36815;SDS011;71982;52.294;6.760;2023-08-17T03:39:57;6.65;;;2.08;;
36815;SDS011;71982;52.294;6.760;2023-08-17T03:42:25;5.95;;;2.20;;
36815;SDS011;71982;52.294;6.760;2023-08-17T03:44:52;9.13;;;2.55;;
36815;SDS011;71982;52.294;6.760;2023-08-17T03:47:19;6.43;;;2.45;;
36815;SDS011;71982;52.294;6.760;2023-08-17T03:49:46;9.15;;;2.20;;
36815;SDS011;71982;52.294;6.760;2023-08-17T03:52:12;3.58;;;1.80;;
36815;SDS011;71982;52.294;6.760;2023-08-17T03:54:39;5.13;;;2.10;;
36815;SDS011;71982;52.294;6.760;2023-08-17T03:57:07;7.45;;;2.05;;
36815;SDS011;71982;52.294;6.760;2023-08-17T03:59:34;5.75;;;2.45;;
36815;SDS011;71982;52.294;6.760;2023-08-17T04:02:01;7.28;;;2.42;;
36815;SDS011;71982;52.294;6.760;2023-08-17T04:04:27;7.15;;;2.20;;
36815;SDS011;71982;52.294;6.760;2023-08-17T04:06:54;6.47;;;2.00;;
36815;SDS011;71982;52.294;6.760;2023-08-17T04:09:21;9.88;;;2.30;;
36815;SDS011;71982;52.294;6.760;2023-08-17T04:11:47;6.35;;;2.17;;
36815;SDS011;71982;52.294;6.760;2023-08-17T04:14:16;8.40;;;2.20;;
36815;SDS011;71982;52.294;6.760;2023-08-17T04:16:42;7.15;;;2.63;;
36815;SDS011;71982;52.294;6.760;2023-08-17T04:19:09;6.35;;;2.00;;
36815;SDS011;71982;52.294;6.760;2023-08-17T04:21:37;10.20;;;2.83;;
36815;SDS011;71982;52.294;6.760;2023-08-17T04:24:04;7.25;;;1.90;;
36815;SDS011;71982;52.294;6.760;2023-08-17T04:26:31;5.82;;;2.13;;
36815;SDS011;71982;52.294;6.760;2023-08-17T04:28:58;5.80;;;2.20;;
36815;SDS011;71982;52.294;6.760;2023-08-17T04:31:26;7.07;;;2.10;;
36815;SDS011;71982;52.294;6.760;2023-08-17T04:33:53;7.57;;;2.10;;
36815;SDS011;71982;52.294;6.760;2023-08-17T04:36:20;6.03;;;2.35;;
36815;SDS011;71982;52.294;6.760;2023-08-17T04:38:46;5.95;;;2.03;;
36815;SDS011;71982;52.294;6.760;2023-08-17T04:41:13;8.13;;;2.72;;
36815;SDS011;71982;52.294;6.760;2023-08-17T04:43:40;4.78;;;2.10;;
36815;SDS011;71982;52.294;6.760;2023-08-17T04:46:08;4.10;;;2.00;;
36815;SDS011;71982;52.294;6.760;2023-08-17T04:48:36;10.45;;;2.40;;
36815;SDS011;71982;52.294;6.760;2023-08-17T04:51:02;7.03;;;2.20;;
36815;SDS011;71982;52.294;6.760;2023-08-17T04:53:29;6.40;;;2.30;;
36815;SDS011;71982;52.294;6.760;2023-08-17T04:55:56;6.35;;;3.78;;
36815;SDS011;71982;52.294;6.760;2023-08-17T04:58:24;10.20;;;5.40;;
36815;SDS011;71982;52.294;6.760;2023-08-17T05:00:51;8.60;;;3.78;;
36815;SDS011;71982;52.294;6.760;2023-08-17T05:03:17;6.55;;;2.95;;
36815;SDS011;71982;52.294;6.760;2023-08-17T05:05:45;8.55;;;4.85;;
36815;SDS011;71982;52.294;6.760;2023-08-17T05:08:12;8.95;;;5.10;;
36815;SDS011;71982;52.294;6.760;2023-08-17T05:10:39;6.68;;;3.70;;
36815;SDS011;71982;52.294;6.760;2023-08-17T05:13:06;6.32;;;3.25;;
36815;SDS011;71982;52.294;6.760;2023-08-17T05:15:33;7.03;;;4.10;;
36815;SDS011;71982;52.294;6.760;2023-08-17T05:18:00;9.63;;;4.03;;
36815;SDS011;71982;52.294;6.760;2023-08-17T05:20:26;8.40;;;3.75;;
36815;SDS011;71982;52.294;6.760;2023-08-17T05:22:54;11.65;;;3.65;;
36815;SDS011;71982;52.294;6.760;2023-08-17T05:25:21;10.85;;;3.60;;
36815;SDS011;71982;52.294;6.760;2023-08-17T05:27:48;7.63;;;3.20;;
36815;SDS011;71982;52.294;6.760;2023-08-17T05:30:15;9.52;;;3.30;;
36815;SDS011;71982;52.294;6.760;2023-08-17T05:32:42;15.70;;;3.20;;
36815;SDS011;71982;52.294;6.760;2023-08-17T05:35:08;8.13;;;3.13;;
36815;SDS011;71982;52.294;6.760;2023-08-17T05:37:35;5.32;;;2.70;;
36815;SDS011;71982;52.294;6.760;2023-08-17T05:40:04;8.35;;;3.33;;
36815;SDS011;71982;52.294;6.760;2023-08-17T05:42:33;12.82;;;3.00;;
36815;SDS011;71982;52.294;6.760;2023-08-17T05:45:00;6.30;;;2.63;;
36815;SDS011;71982;52.294;6.760;2023-08-17T05:47:27;8.95;;;2.88;;
36815;SDS011;71982;52.294;6.760;2023-08-17T05:49:54;9.10;;;3.08;;
36815;SDS011;71982;52.294;6.760;2023-08-17T05:52:20;7.25;;;2.67;;
36815;SDS011;71982;52.294;6.760;2023-08-17T05:54:47;7.55;;;2.67;;
36815;SDS011;71982;52.294;6.760;2023-08-17T05:57:15;6.20;;;2.80;;
36815;SDS011;71982;52.294;6.760;2023-08-17T05:59:42;9.27;;;2.90;;
36815;SDS011;71982;52.294;6.760;2023-08-17T06:02:09;5.70;;;2.10;;
36815;SDS011;71982;52.294;6.760;2023-08-17T06:04:35;9.65;;;2.80;;
36815;SDS011;71982;52.294;6.760;2023-08-17T06:07:02;8.32;;;2.60;;
36815;SDS011;71982;52.294;6.760;2023-08-17T06:09:29;6.57;;;2.17;;
36815;SDS011;71982;52.294;6.760;2023-08-17T06:11:56;16.17;;;3.65;;
36815;SDS011;71982;52.294;6.760;2023-08-17T06:14:24;8.32;;;2.47;;
36815;SDS011;71982;52.294;6.760;2023-08-17T06:16:50;6.10;;;1.95;;
36815;SDS011;71982;52.294;6.760;2023-08-17T06:19:17;7.15;;;2.28;;
36815;SDS011;71982;52.294;6.760;2023-08-17T06:21:44;10.43;;;2.33;;
36815;SDS011;71982;52.294;6.760;2023-08-17T06:24:11;9.45;;;2.17;;
36815;SDS011;71982;52.294;6.760;2023-08-17T06:26:37;5.32;;;1.85;;
36815;SDS011;71982;52.294;6.760;2023-08-17T06:29:04;5.38;;;1.95;;
36815;SDS011;71982;52.294;6.760;2023-08-17T06:31:32;7.35;;;2.33;;
36815;SDS011;71982;52.294;6.760;2023-08-17T06:33:59;8.57;;;2.08;;
36815;SDS011;71982;52.294;6.760;2023-08-17T06:36:26;6.93;;;2.22;;
36815;SDS011;71982;52.294;6.760;2023-08-17T06:38:55;5.82;;;2.33;;
36815;SDS011;71982;52.294;6.760;2023-08-17T06:41:22;8.25;;;2.53;;
36815;SDS011;71982;52.294;6.760;2023-08-17T06:43:49;9.80;;;2.33;;
36815;SDS011;71982;52.294;6.760;2023-08-17T06:46:16;9.82;;;2.45;;
36815;SDS011;71982;52.294;6.760;2023-08-17T06:48:44;9.93;;;2.60;;
36815;SDS011;71982;52.294;6.760;2023-08-17T06:51:11;7.78;;;2.70;;
36815;SDS011;71982;52.294;6.760;2023-08-17T06:53:38;9.05;;;2.72;;
36815;SDS011;71982;52.294;6.760;2023-08-17T06:56:05;3.67;;;1.88;;
36815;SDS011;71982;52.294;6.760;2023-08-17T06:58:32;7.82;;;2.65;;
36815;SDS011;71982;52.294;6.760;2023-08-17T07:00:58;5.35;;;2.30;;
36815;SDS011;71982;52.294;6.760;2023-08-17T07:03:25;7.28;;;2.30;;
36815;SDS011;71982;52.294;6.760;2023-08-17T07:05:53;7.70;;;2.88;;
36815;SDS011;71982;52.294;6.760;2023-08-17T07:08:20;8.75;;;2.35;;
36815;SDS011;71982;52.294;6.760;2023-08-17T07:10:47;7.63;;;2.50;;
36815;SDS011;71982;52.294;6.760;2023-08-17T07:13:14;9.48;;;2.22;;
36815;SDS011;71982;52.294;6.760;2023-08-17T07:15:41;8.80;;;2.50;;
36815;SDS011;71982;52.294;6.760;2023-08-17T07:18:07;8.68;;;2.55;;
36815;SDS011;71982;52.294;6.760;2023-08-17T07:20:34;5.63;;;2.20;;
36815;SDS011;71982;52.294;6.760;2023-08-17T07:23:02;6.00;;;2.22;;
36815;SDS011;71982;52.294;6.760;2023-08-17T07:25:30;5.88;;;1.95;;
36815;SDS011;71982;52.294;6.760;2023-08-17T07:27:57;7.47;;;2.17;;
36815;SDS011;71982;52.294;6.760;2023-08-17T07:30:24;7.95;;;2.10;;
36815;SDS011;71982;52.294;6.760;2023-08-17T07:32:51;4.82;;;2.45;;
36815;SDS011;71982;52.294;6.760;2023-08-17T07:35:18;6.72;;;2.45;;
36815;SDS011;71982;52.294;6.760;2023-08-17T07:37:44;7.15;;;2.40;;
36815;SDS011;71982;52.294;6.760;2023-08-17T07:40:12;7.07;;;2.25;;
36815;SDS011;71982;52.294;6.760;2023-08-17T07:42:39;6.80;;;1.92;;
36815;SDS011;71982;52.294;6.760;2023-08-17T07:45:06;4.72;;;1.98;;
36815;SDS011;71982;52.294;6.760;2023-08-17T07:47:33;8.05;;;2.13;;
36815;SDS011;71982;52.294;6.760;2023-08-17T07:50:01;8.70;;;2.10;;
36815;SDS011;71982;52.294;6.760;2023-08-17T07:52:28;4.68;;;1.95;;
36815;SDS011;71982;52.294;6.760;2023-08-17T07:54:55;4.47;;;1.95;;
36815;SDS011;71982;52.294;6.760;2023-08-17T07:57:23;5.53;;;2.13;;
36815;SDS011;71982;52.294;6.760;2023-08-17T07:59:50;8.15;;;2.35;;
36815;SDS011;71982;52.294;6.760;2023-08-17T08:02:18;5.15;;;2.30;;
36815;SDS011;71982;52.294;6.760;2023-08-17T08:04:45;10.57;;;2.50;;
36815;SDS011;71982;52.294;6.760;2023-08-17T08:07:12;8.43;;;2.60;;
36815;SDS011;71982;52.294;6.760;2023-08-17T08:09:39;5.80;;;2.40;;
36815;SDS011;71982;52.294;6.760;2023-08-17T08:12:05;8.23;;;2.70;;
36815;SDS011;71982;52.294;6.760;2023-08-17T08:14:34;8.50;;;2.97;;
36815;SDS011;71982;52.294;6.760;2023-08-17T08:17:01;9.35;;;2.45;;
36815;SDS011;71982;52.294;6.760;2023-08-17T08:19:28;8.63;;;2.53;;
36815;SDS011;71982;52.294;6.760;2023-08-17T08:21:55;9.23;;;2.72;;
36815;SDS011;71982;52.294;6.760;2023-08-17T08:24:21;9.98;;;2.88;;
36815;SDS011;71982;52.294;6.760;2023-08-17T08:26:48;5.97;;;2.75;;
36815;SDS011;71982;52.294;6.760;2023-08-17T08:29:16;10.85;;;3.05;;
36815;SDS011;71982;52.294;6.760;2023-08-17T08:31:44;8.55;;;2.75;;
36815;SDS011;71982;52.294;6.760;2023-08-17T08:34:11;13.65;;;3.55;;
36815;SDS011;71982;52.294;6.760;2023-08-17T08:36:37;10.63;;;3.28;;
36815;SDS011;71982;52.294;6.760;2023-08-17T08:39:04;6.38;;;2.60;;
36815;SDS011;71982;52.294;6.760;2023-08-17T08:41:32;9.63;;;2.90;;
36815;SDS011;71982;52.294;6.760;2023-08-17T08:44:01;8.07;;;3.08;;
36815;SDS011;71982;52.294;6.760;2023-08-17T08:46:29;11.63;;;3.55;;
36815;SDS011;71982;52.294;6.760;2023-08-17T08:48:59;9.00;;;3.65;;
36815;SDS011;71982;52.294;6.760;2023-08-17T08:51:27;12.05;;;3.88;;
36815;SDS011;71982;52.294;6.760;2023-08-17T08:53:58;10.20;;;3.80;;
36815;SDS011;71982;52.294;6.760;2023-08-17T08:56:28;7.65;;;3.53;;
36815;SDS011;71982;52.294;6.760;2023-08-17T08:58:58;12.35;;;3.90;;
36815;SDS011;71982;52.294;6.760;2023-08-17T09:01:27;8.68;;;3.97;;
36815;SDS011;71982;52.294;6.760;2023-08-17T09:03:59;7.68;;;3.80;;
36815;SDS011;71982;52.294;6.760;2023-08-17T09:06:27;11.90;;;5.43;;
36815;SDS011;71982;52.294;6.760;2023-08-17T09:08:56;6.97;;;3.85;;
36815;SDS011;71982;52.294;6.760;2023-08-17T09:11:24;8.10;;;4.07;;
36815;SDS011;71982;52.294;6.760;2023-08-17T09:13:52;11.18;;;4.20;;
36815;SDS011;71982;52.294;6.760;2023-08-17T09:16:19;9.65;;;3.78;;
36815;SDS011;71982;52.294;6.760;2023-08-17T09:18:46;11.90;;;4.03;;
36815;SDS011;71982;52.294;6.760;2023-08-17T09:21:20;10.02;;;3.85;;
36815;SDS011;71982;52.294;6.760;2023-08-17T09:23:50;16.35;;;4.43;;
36815;SDS011;71982;52.294;6.760;2023-08-17T09:26:18;10.57;;;4.35;;
36815;SDS011;71982;52.294;6.760;2023-08-17T09:28:47;8.57;;;4.00;;
36815;SDS011;71982;52.294;6.760;2023-08-17T09:31:13;9.23;;;4.22;;
36815;SDS011;71982;52.294;6.760;2023-08-17T09:33:40;11.02;;;4.47;;
36815;SDS011;71982;52.294;6.760;2023-08-17T09:36:09;14.35;;;5.05;;
36815;SDS011;71982;52.294;6.760;2023-08-17T09:38:38;9.15;;;4.20;;
36815;SDS011;71982;52.294;6.760;2023-08-17T09:41:05;9.15;;;4.35;;
36815;SDS011;71982;52.294;6.760;2023-08-17T09:43:32;7.18;;;4.00;;
36815;SDS011;71982;52.294;6.760;2023-08-17T09:45:59;9.15;;;4.57;;
36815;SDS011;71982;52.294;6.760;2023-08-17T09:48:28;9.40;;;5.00;;
36815;SDS011;71982;52.294;6.760;2023-08-17T09:50:56;13.40;;;4.85;;
36815;SDS011;71982;52.294;6.760;2023-08-17T09:53:23;8.00;;;3.97;;
36815;SDS011;71982;52.294;6.760;2023-08-17T09:55:51;7.22;;;3.42;;
36815;SDS011;71982;52.294;6.760;2023-08-17T09:58:20;6.55;;;4.47;;
36815;SDS011;71982;52.294;6.760;2023-08-17T10:00:47;8.40;;;4.07;;
36815;SDS011;71982;52.294;6.760;2023-08-17T10:03:15;7.47;;;4.00;;
36815;SDS011;71982;52.294;6.760;2023-08-17T10:05:43;6.82;;;3.90;;
36815;SDS011;71982;52.294;6.760;2023-08-17T10:08:13;8.88;;;4.43;;
36815;SDS011;71982;52.294;6.760;2023-08-17T10:10:46;6.95;;;3.70;;
36815;SDS011;71982;52.294;6.760;2023-08-17T10:13:16;7.15;;;3.47;;
36815;SDS011;71982;52.294;6.760;2023-08-17T10:15:51;7.90;;;3.67;;
36815;SDS011;71982;52.294;6.760;2023-08-17T10:18:26;6.45;;;3.53;;
36815;SDS011;71982;52.294;6.760;2023-08-17T10:20:58;8.32;;;3.63;;
36815;SDS011;71982;52.294;6.760;2023-08-17T10:23:29;8.68;;;4.13;;
36815;SDS011;71982;52.294;6.760;2023-08-17T10:25:57;5.18;;;3.22;;
36815;SDS011;71982;52.294;6.760;2023-08-17T10:28:26;9.10;;;4.28;;
36815;SDS011;71982;52.294;6.760;2023-08-17T10:30:53;7.45;;;4.00;;
36815;SDS011;71982;52.294;6.760;2023-08-17T10:33:20;8.23;;;4.57;;
36815;SDS011;71982;52.294;6.760;2023-08-17T10:35:47;8.18;;;4.45;;
36815;SDS011;71982;52.294;6.760;2023-08-17T10:38:15;6.13;;;4.18;;
36815;SDS011;71982;52.294;6.760;2023-08-17T10:40:42;5.43;;;3.72;;
36815;SDS011;71982;52.294;6.760;2023-08-17T10:43:09;5.07;;;3.58;;
36815;SDS011;71982;52.294;6.760;2023-08-17T10:45:38;5.65;;;3.30;;
36815;SDS011;71982;52.294;6.760;2023-08-17T10:48:31;4.45;;;3.50;;
36815;SDS011;71982;52.294;6.760;2023-08-17T10:50:59;4.88;;;3.90;;
36815;SDS011;71982;52.294;6.760;2023-08-17T10:53:27;8.88;;;4.15;;
36815;SDS011;71982;52.294;6.760;2023-08-17T10:56:01;9.27;;;4.75;;
36815;SDS011;71982;52.294;6.760;2023-08-17T10:58:30;6.57;;;4.30;;
36815;SDS011;71982;52.294;6.760;2023-08-17T11:01:00;8.30;;;5.50;;
36815;SDS011;71982;52.294;6.760;2023-08-17T11:03:27;6.47;;;4.68;;
36815;SDS011;71982;52.294;6.760;2023-08-17T11:05:54;8.82;;;5.35;;
36815;SDS011;71982;52.294;6.760;2023-08-17T11:08:22;5.22;;;4.45;;
36815;SDS011;71982;52.294;6.760;2023-08-17T11:10:57;8.35;;;4.60;;
36815;SDS011;71982;52.294;6.760;2023-08-17T11:13:27;6.90;;;4.32;;
36815;SDS011;71982;52.294;6.760;2023-08-17T11:15:57;9.50;;;4.63;;
36815;SDS011;71982;52.294;6.760;2023-08-17T11:18:25;7.25;;;5.40;;
36815;SDS011;71982;52.294;6.760;2023-08-17T11:20:53;8.30;;;5.63;;
36815;SDS011;71982;52.294;6.760;2023-08-17T11:23:20;10.35;;;6.18;;
36815;SDS011;71982;52.294;6.760;2023-08-17T11:25:48;8.98;;;6.60;;
36815;SDS011;71982;52.294;6.760;2023-08-17T11:28:16;10.23;;;6.50;;
36815;SDS011;71982;52.294;6.760;2023-08-17T11:30:43;10.02;;;6.85;;
36815;SDS011;71982;52.294;6.760;2023-08-17T11:33:10;10.75;;;7.07;;
36815;SDS011;71982;52.294;6.760;2023-08-17T11:35:38;11.15;;;7.18;;
36815;SDS011;71982;52.294;6.760;2023-08-17T11:38:05;11.45;;;6.43;;
36815;SDS011;71982;52.294;6.760;2023-08-17T11:40:33;10.27;;;7.72;;
36815;SDS011;71982;52.294;6.760;2023-08-17T11:43:00;15.07;;;8.75;;
36815;SDS011;71982;52.294;6.760;2023-08-17T11:45:27;10.85;;;7.38;;
36815;SDS011;71982;52.294;6.760;2023-08-17T11:47:53;8.95;;;7.15;;
36815;SDS011;71982;52.294;6.760;2023-08-17T11:50:20;14.73;;;7.47;;
36815;SDS011;71982;52.294;6.760;2023-08-17T11:52:48;10.95;;;6.93;;
36815;SDS011;71982;52.294;6.760;2023-08-17T11:55:15;11.95;;;7.20;;
36815;SDS011;71982;52.294;6.760;2023-08-17T11:57:44;10.93;;;6.97;;
36815;SDS011;71982;52.294;6.760;2023-08-17T12:00:16;11.95;;;7.85;;
36815;SDS011;71982;52.294;6.760;2023-08-17T12:02:46;11.88;;;7.10;;
36815;SDS011;71982;52.294;6.760;2023-08-17T12:05:13;10.60;;;7.45;;
36815;SDS011;71982;52.294;6.760;2023-08-17T12:10:13;13.25;;;8.18;;
36815;SDS011;71982;52.294;6.760;2023-08-17T12:12:40;13.57;;;8.63;;
36815;SDS011;71982;52.294;6.760;2023-08-17T12:15:07;13.50;;;8.98;;
36815;SDS011;71982;52.294;6.760;2023-08-17T12:17:37;13.85;;;10.07;;
36815;SDS011;71982;52.294;6.760;2023-08-17T12:20:14;16.42;;;9.43;;
36815;SDS011;71982;52.294;6.760;2023-08-17T12:22:41;11.73;;;8.93;;
36815;SDS011;71982;52.294;6.760;2023-08-17T12:25:08;12.98;;;9.20;;
36815;SDS011;71982;52.294;6.760;2023-08-17T12:27:37;15.43;;;9.40;;
36815;SDS011;71982;52.294;6.760;2023-08-17T12:30:06;13.38;;;8.85;;
36815;SDS011;71982;52.294;6.760;2023-08-17T12:32:38;11.60;;;8.95;;
36815;SDS011;71982;52.294;6.760;2023-08-17T12:35:05;14.32;;;10.10;;
36815;SDS011;71982;52.294;6.760;2023-08-17T12:37:33;12.80;;;9.10;;
36815;SDS011;71982;52.294;6.760;2023-08-17T12:39:59;12.32;;;8.15;;
36815;SDS011;71982;52.294;6.760;2023-08-17T12:42:26;14.80;;;9.05;;
36815;SDS011;71982;52.294;6.760;2023-08-17T12:44:54;16.05;;;10.40;;
36815;SDS011;71982;52.294;6.760;2023-08-17T12:47:21;13.43;;;8.48;;
36815;SDS011;71982;52.294;6.760;2023-08-17T12:49:48;15.55;;;8.98;;
36815;SDS011;71982;52.294;6.760;2023-08-17T12:52:14;13.38;;;9.00;;
36815;SDS011;71982;52.294;6.760;2023-08-17T12:54:41;11.57;;;7.90;;
36815;SDS011;71982;52.294;6.760;2023-08-17T12:57:08;12.57;;;8.57;;
36815;SDS011;71982;52.294;6.760;2023-08-17T12:59:35;11.52;;;8.10;;
36815;SDS011;71982;52.294;6.760;2023-08-17T13:02:03;13.93;;;9.75;;
36815;SDS011;71982;52.294;6.760;2023-08-17T13:04:30;15.77;;;9.55;;
36815;SDS011;71982;52.294;6.760;2023-08-17T13:06:56;12.75;;;8.85;;
36815;SDS011;71982;52.294;6.760;2023-08-17T13:09:23;17.08;;;11.02;;
36815;SDS011;71982;52.294;6.760;2023-08-17T13:11:50;15.18;;;9.93;;
36815;SDS011;71982;52.294;6.760;2023-08-17T13:14:17;11.88;;;9.27;;
36815;SDS011;71982;52.294;6.760;2023-08-17T13:16:43;11.85;;;8.75;;
36815;SDS011;71982;52.294;6.760;2023-08-17T13:19:11;13.18;;;8.50;;
36815;SDS011;71982;52.294;6.760;2023-08-17T13:21:38;10.48;;;7.93;;
36815;SDS011;71982;52.294;6.760;2023-08-17T13:24:05;16.80;;;9.45;;
36815;SDS011;71982;52.294;6.760;2023-08-17T13:26:32;13.10;;;8.13;;
36815;SDS011;71982;52.294;6.760;2023-08-17T13:28:59;12.70;;;8.90;;
36815;SDS011;71982;52.294;6.760;2023-08-17T13:31:25;12.57;;;8.38;;
36815;SDS011;71982;52.294;6.760;2023-08-17T13:33:52;10.23;;;8.07;;
36815;SDS011;71982;52.294;6.760;2023-08-17T13:36:20;9.77;;;7.35;;
36815;SDS011;71982;52.294;6.760;2023-08-17T13:38:47;17.80;;;9.00;;
36815;SDS011;71982;52.294;6.760;2023-08-17T13:41:14;11.13;;;7.88;;
36815;SDS011;71982;52.294;6.760;2023-08-17T13:43:40;10.30;;;7.10;;
36815;SDS011;71982;52.294;6.760;2023-08-17T13:46:07;11.32;;;7.28;;
36815;SDS011;71982;52.294;6.760;2023-08-17T13:48:34;11.63;;;7.68;;
36815;SDS011;71982;52.294;6.760;2023-08-17T13:51:03;11.88;;;7.80;;
36815;SDS011;71982;52.294;6.760;2023-08-17T13:53:31;12.60;;;8.52;;
36815;SDS011;71982;52.294;6.760;2023-08-17T13:55:58;14.75;;;7.90;;
36815;SDS011;71982;52.294;6.760;2023-08-17T13:58:25;10.82;;;7.47;;
36815;SDS011;71982;52.294;6.760;2023-08-17T14:00:52;12.73;;;8.63;;
36815;SDS011;71982;52.294;6.760;2023-08-17T14:03:18;12.25;;;7.13;;
36815;SDS011;71982;52.294;6.760;2023-08-17T14:05:45;11.60;;;9.05;;
36815;SDS011;71982;52.294;6.760;2023-08-17T14:08:12;16.05;;;10.52;;
36815;SDS011;71982;52.294;6.760;2023-08-17T14:10:40;12.88;;;10.23;;
36815;SDS011;71982;52.294;6.760;2023-08-17T14:13:06;16.10;;;9.70;;
36815;SDS011;71982;52.294;6.760;2023-08-17T14:15:33;15.05;;;8.77;;
36815;SDS011;71982;52.294;6.760;2023-08-17T14:18:00;16.05;;;10.77;;
36815;SDS011;71982;52.294;6.760;2023-08-17T14:20:28;18.02;;;11.20;;
36815;SDS011;71982;52.294;6.760;2023-08-17T14:22:55;10.95;;;9.70;;
36815;SDS011;71982;52.294;6.760;2023-08-17T14:25:22;12.10;;;9.93;;
36815;SDS011;71982;52.294;6.760;2023-08-17T14:27:50;16.55;;;10.23;;
36815;SDS011;71982;52.294;6.760;2023-08-17T14:30:17;14.55;;;9.90;;
36815;SDS011;71982;52.294;6.760;2023-08-17T14:32:43;12.00;;;9.38;;
36815;SDS011;71982;52.294;6.760;2023-08-17T14:35:10;15.30;;;11.13;;
36815;SDS011;71982;52.294;6.760;2023-08-17T14:37:37;14.15;;;9.60;;
36815;SDS011;71982;52.294;6.760;2023-08-17T14:40:04;13.18;;;8.43;;
36815;SDS011;71982;52.294;6.760;2023-08-17T14:42:31;12.73;;;8.85;;
36815;SDS011;71982;52.294;6.760;2023-08-17T14:45:00;14.18;;;8.63;;
36815;SDS011;71982;52.294;6.760;2023-08-17T14:47:26;13.38;;;8.00;;